sensor_id;sensor_type;location;lat;lon;timestamp;pressure;altitude;pressure_sealevel;temperature;humidity
79540;BME280;68991;52.122;5.406;2023-07-29T00:02:14;100868.50;;;22.77;71.75
79540;BME280;68991;52.122;5.406;2023-07-29T00:04:41;100861.28;;;22.76;72.07
79540;BME280;68991;52.122;5.406;2023-07-29T00:07:07;100858.53;;;22.76;72.02
79540;BME280;68991;52.122;5.406;2023-07-29T00:09:34;100861.28;;;22.76;71.98
79540;BME280;68991;52.122;5.406;2023-07-29T00:12:00;100855.81;;;22.76;72.25
79540;BME280;68991;52.122;5.406;2023-07-29T00:14:27;100852.34;;;22.74;71.94
79540;BME280;68991;52.122;5.406;2023-07-29T00:16:53;100852.34;;;22.74;71.95
79540;BME280;68991;52.122;5.406;2023-07-29T00:19:20;100836.94;;;22.73;72.26
79540;BME280;68991;52.122;5.406;2023-07-29T00:21:49;100841.53;;;22.73;71.92
79540;BME280;68991;52.122;5.406;2023-07-29T00:24:16;100848.03;;;22.72;71.97
79540;BME280;68991;52.122;5.406;2023-07-29T00:26:42;100832.59;;;22.71;71.89
79540;BME280;68991;52.122;5.406;2023-07-29T00:29:09;100835.50;;;22.69;71.89
79540;BME280;68991;52.122;5.406;2023-07-29T00:31:35;100833.63;;;22.70;71.71
79540;BME280;68991;52.122;5.406;2023-07-29T00:34:02;100816.47;;;22.68;71.83
79540;BME280;68991;52.122;5.406;2023-07-29T00:36:28;100807.38;;;22.67;71.87
79540;BME280;68991;52.122;5.406;2023-07-29T00:38:54;100806.53;;;22.67;71.88
79540;BME280;68991;52.122;5.406;2023-07-29T00:41:23;100820.34;;;22.65;71.92
79540;BME280;68991;52.122;5.406;2023-07-29T00:43:51;100837.81;;;22.64;71.65
79540;BME280;68991;52.122;5.406;2023-07-29T00:46:18;100833.38;;;22.63;71.48
79540;BME280;68991;52.122;5.406;2023-07-29T00:48:45;100837.13;;;22.62;71.68
79540;BME280;68991;52.122;5.406;2023-07-29T00:51:12;100843.59;;;22.61;71.64
79540;BME280;68991;52.122;5.406;2023-07-29T00:53:38;100839.13;;;22.60;71.54
79540;BME280;68991;52.122;5.406;2023-07-29T00:56:05;100828.16;;;22.60;71.68
79540;BME280;68991;52.122;5.406;2023-07-29T00:58:32;100820.13;;;22.59;71.43
79540;BME280;68991;52.122;5.406;2023-07-29T01:00:58;100815.63;;;22.58;71.70
79540;BME280;68991;52.122;5.406;2023-07-29T01:03:25;100810.16;;;22.58;71.58
79540;BME280;68991;52.122;5.406;2023-07-29T01:08:47;100815.81;;;22.56;71.34
79540;BME280;68991;52.122;5.406;2023-07-29T01:11:38;100813.22;;;22.55;71.47
79540;BME280;68991;52.122;5.406;2023-07-29T01:14:21;100822.44;;;22.54;71.65
79540;BME280;68991;52.122;5.406;2023-07-29T01:16:55;100830.84;;;22.52;71.58
79540;BME280;68991;52.122;5.406;2023-07-29T01:22:21;100821.75;;;22.52;71.41
79540;BME280;68991;52.122;5.406;2023-07-29T01:24:47;100821.88;;;22.50;71.12
79540;BME280;68991;52.122;5.406;2023-07-29T01:27:14;100816.56;;;22.49;71.36
79540;BME280;68991;52.122;5.406;2023-07-29T01:29:41;100815.72;;;22.48;71.62
79540;BME280;68991;52.122;5.406;2023-07-29T01:32:12;100815.84;;;22.47;71.42
79540;BME280;68991;52.122;5.406;2023-07-29T01:35:39;100816.03;;;22.45;71.35
79540;BME280;68991;52.122;5.406;2023-07-29T01:37:49;100828.84;;;22.45;71.42
79540;BME280;68991;52.122;5.406;2023-07-29T01:40:18;100819.78;;;22.44;71.55
79540;BME280;68991;52.122;5.406;2023-07-29T01:42:44;100815.28;;;22.43;71.32
79540;BME280;68991;52.122;5.406;2023-07-29T01:45:12;100818.22;;;22.42;71.30
79540;BME280;68991;52.122;5.406;2023-07-29T01:47:38;100808.25;;;22.41;71.42
79540;BME280;68991;52.122;5.406;2023-07-29T01:50:08;100815.47;;;22.42;71.39
79540;BME280;68991;52.122;5.406;2023-07-29T01:52:35;100811.00;;;22.41;71.16
79540;BME280;68991;52.122;5.406;2023-07-29T01:55:02;100808.38;;;22.39;71.52
79540;BME280;68991;52.122;5.406;2023-07-29T01:57:28;100802.09;;;22.39;71.41
79540;BME280;68991;52.122;5.406;2023-07-29T01:59:55;100801.22;;;22.38;71.40
79540;BME280;68991;52.122;5.406;2023-07-29T02:02:21;100799.34;;;22.39;71.43
79540;BME280;68991;52.122;5.406;2023-07-29T02:04:48;100801.34;;;22.37;71.51
79540;BME280;68991;52.122;5.406;2023-07-29T02:07:20;100796.03;;;22.35;71.06
79540;BME280;68991;52.122;5.406;2023-07-29T02:09:47;100803.41;;;22.35;71.19
79540;BME280;68991;52.122;5.406;2023-07-29T02:12:13;100792.59;;;22.33;71.43
79540;BME280;68991;52.122;5.406;2023-07-29T02:14:40;100794.44;;;22.32;71.33
79540;BME280;68991;52.122;5.406;2023-07-29T02:17:06;100792.59;;;22.33;71.14
79540;BME280;68991;52.122;5.406;2023-07-29T02:19:33;100793.59;;;22.32;71.19
79540;BME280;68991;52.122;5.406;2023-07-29T02:22:00;100793.59;;;22.32;70.93
79540;BME280;68991;52.122;5.406;2023-07-29T02:24:26;100794.63;;;22.31;71.13
79540;BME280;68991;52.122;5.406;2023-07-29T02:26:53;100781.94;;;22.30;71.04
79540;BME280;68991;52.122;5.406;2023-07-29T02:29:19;100782.94;;;22.29;71.28
79540;BME280;68991;52.122;5.406;2023-07-29T02:31:46;100783.81;;;22.29;71.20
79540;BME280;68991;52.122;5.406;2023-07-29T02:34:12;100785.69;;;22.29;71.02
79540;BME280;68991;52.122;5.406;2023-07-29T02:36:39;100787.72;;;22.27;71.08
79540;BME280;68991;52.122;5.406;2023-07-29T02:39:05;100783.09;;;22.27;71.25
79540;BME280;68991;52.122;5.406;2023-07-29T02:41:32;100787.72;;;22.27;70.90
79540;BME280;68991;52.122;5.406;2023-07-29T02:43:58;100785.13;;;22.25;70.92
79540;BME280;68991;52.122;5.406;2023-07-29T02:46:25;100786.00;;;22.26;71.31
79540;BME280;68991;52.122;5.406;2023-07-29T02:48:52;100781.53;;;22.25;70.80
79540;BME280;68991;52.122;5.406;2023-07-29T02:51:18;100777.06;;;22.24;71.15
79540;BME280;68991;52.122;5.406;2023-07-29T02:53:45;100781.69;;;22.23;70.95
79540;BME280;68991;52.122;5.406;2023-07-29T02:56:11;100769.00;;;22.22;70.94
79540;BME280;68991;52.122;5.406;2023-07-29T02:58:38;100773.63;;;22.22;70.71
79540;BME280;68991;52.122;5.406;2023-07-29T03:01:05;100778.22;;;22.21;70.94
79540;BME280;68991;52.122;5.406;2023-07-29T03:03:33;100780.13;;;22.21;70.88
79540;BME280;68991;52.122;5.406;2023-07-29T03:06:04;100780.13;;;22.21;71.05
79540;BME280;68991;52.122;5.406;2023-07-29T03:08:32;100782.00;;;22.20;70.68
79540;BME280;68991;52.122;5.406;2023-07-29T03:10:59;100773.91;;;22.19;70.82
79540;BME280;68991;52.122;5.406;2023-07-29T03:13:25;100771.19;;;22.19;70.92
79540;BME280;68991;52.122;5.406;2023-07-29T03:15:52;100762.97;;;22.19;70.76
79540;BME280;68991;52.122;5.406;2023-07-29T03:18:18;100757.66;;;22.17;70.91
79540;BME280;68991;52.122;5.406;2023-07-29T03:20:44;100760.41;;;22.17;71.13
79540;BME280;68991;52.122;5.406;2023-07-29T03:23:11;100765.00;;;22.17;71.24
79540;BME280;68991;52.122;5.406;2023-07-29T03:25:38;100757.81;;;22.16;71.10
79540;BME280;68991;52.122;5.406;2023-07-29T03:28:04;100767.03;;;22.15;71.05
79540;BME280;68991;52.122;5.406;2023-07-29T03:30:31;100767.03;;;22.15;71.15
79540;BME280;68991;52.122;5.406;2023-07-29T03:32:57;100765.16;;;22.15;70.88
79540;BME280;68991;52.122;5.406;2023-07-29T03:35:24;100769.94;;;22.13;70.82
79540;BME280;68991;52.122;5.406;2023-07-29T03:37:50;100773.53;;;22.14;70.76
79540;BME280;68991;52.122;5.406;2023-07-29T03:40:17;100759.97;;;22.12;71.20
79540;BME280;68991;52.122;5.406;2023-07-29T03:42:44;100764.59;;;22.12;71.13
79540;BME280;68991;52.122;5.406;2023-07-29T03:45:10;100755.50;;;22.11;70.99
79540;BME280;68991;52.122;5.406;2023-07-29T03:47:38;100760.13;;;22.11;70.97
79540;BME280;68991;52.122;5.406;2023-07-29T03:50:05;100769.38;;;22.10;71.01
79540;BME280;68991;52.122;5.406;2023-07-29T03:52:31;100762.16;;;22.09;70.77
79540;BME280;68991;52.122;5.406;2023-07-29T03:54:58;100777.72;;;22.08;70.72
79540;BME280;68991;52.122;5.406;2023-07-29T03:57:24;100778.59;;;22.09;70.62
79540;BME280;68991;52.122;5.406;2023-07-29T03:59:50;100787.81;;;22.08;70.77
79540;BME280;68991;52.122;5.406;2023-07-29T04:02:17;100780.63;;;22.07;70.59
79540;BME280;68991;52.122;5.406;2023-07-29T04:04:43;100780.63;;;22.07;70.61
79540;BME280;68991;52.122;5.406;2023-07-29T04:07:14;100773.44;;;22.06;70.68
79540;BME280;68991;52.122;5.406;2023-07-29T04:09:40;100773.44;;;22.06;70.48
79540;BME280;68991;52.122;5.406;2023-07-29T04:12:07;100783.50;;;22.05;70.26
79540;BME280;68991;52.122;5.406;2023-07-29T04:14:34;100794.47;;;22.05;70.33
79540;BME280;68991;52.122;5.406;2023-07-29T04:17:00;100777.16;;;22.05;70.32
79540;BME280;68991;52.122;5.406;2023-07-29T04:19:27;100769.97;;;22.04;70.50
79540;BME280;68991;52.122;5.406;2023-07-29T04:21:53;100765.34;;;22.04;70.43
79540;BME280;68991;52.122;5.406;2023-07-29T04:24:19;100764.47;;;22.04;70.44
79540;BME280;68991;52.122;5.406;2023-07-29T04:26:46;100773.72;;;22.03;70.80
79540;BME280;68991;52.122;5.406;2023-07-29T04:29:13;100768.25;;;22.03;70.45
79540;BME280;68991;52.122;5.406;2023-07-29T04:31:39;100772.00;;;22.02;70.41
79540;BME280;68991;52.122;5.406;2023-07-29T04:34:06;100776.59;;;22.01;70.54
79540;BME280;68991;52.122;5.406;2023-07-29T04:36:32;100770.25;;;22.01;70.82
79540;BME280;68991;52.122;5.406;2023-07-29T04:38:59;100779.34;;;22.01;70.63
79540;BME280;68991;52.122;5.406;2023-07-29T04:41:26;100770.25;;;22.01;70.72
79540;BME280;68991;52.122;5.406;2023-07-29T04:43:53;100775.75;;;22.01;70.35
79540;BME280;68991;52.122;5.406;2023-07-29T04:46:19;100774.03;;;22.00;70.42
79540;BME280;68991;52.122;5.406;2023-07-29T04:48:46;100774.03;;;22.00;70.53
79540;BME280;68991;52.122;5.406;2023-07-29T04:51:12;100775.91;;;21.99;70.12
79540;BME280;68991;52.122;5.406;2023-07-29T04:53:39;100777.78;;;21.99;70.50
79540;BME280;68991;52.122;5.406;2023-07-29T04:56:05;100778.66;;;21.99;69.90
79540;BME280;68991;52.122;5.406;2023-07-29T04:58:32;100776.06;;;21.98;70.26
79540;BME280;68991;52.122;5.406;2023-07-29T05:01:02;100768.72;;;21.98;70.50
79540;BME280;68991;52.122;5.406;2023-07-29T05:03:29;100782.38;;;21.98;70.19
79540;BME280;68991;52.122;5.406;2023-07-29T05:05:57;100782.38;;;21.98;70.41
79540;BME280;68991;52.122;5.406;2023-07-29T05:08:24;100789.75;;;21.98;70.12
79540;BME280;68991;52.122;5.406;2023-07-29T05:10:51;100787.88;;;21.98;70.15
79540;BME280;68991;52.122;5.406;2023-07-29T05:13:17;100791.47;;;21.99;70.14
79540;BME280;68991;52.122;5.406;2023-07-29T05:15:44;100804.28;;;21.98;69.77
79540;BME280;68991;52.122;5.406;2023-07-29T05:18:11;100802.44;;;21.99;69.91
79540;BME280;68991;52.122;5.406;2023-07-29T05:20:37;100801.56;;;21.98;69.62
79540;BME280;68991;52.122;5.406;2023-07-29T05:23:04;100798.81;;;21.98;69.93
79540;BME280;68991;52.122;5.406;2023-07-29T05:25:30;100794.34;;;21.97;69.76
79540;BME280;68991;52.122;5.406;2023-07-29T05:27:57;100803.44;;;21.98;70.24
79540;BME280;68991;52.122;5.406;2023-07-29T05:30:23;100798.81;;;21.98;70.06
79540;BME280;68991;52.122;5.406;2023-07-29T05:32:50;100799.69;;;21.99;69.59
79540;BME280;68991;52.122;5.406;2023-07-29T05:35:16;100797.94;;;21.98;70.10
79540;BME280;68991;52.122;5.406;2023-07-29T05:37:43;100797.94;;;21.98;69.66
79540;BME280;68991;52.122;5.406;2023-07-29T05:40:09;100806.03;;;21.99;69.64
79540;BME280;68991;52.122;5.406;2023-07-29T05:42:36;100811.50;;;21.99;69.58
79540;BME280;68991;52.122;5.406;2023-07-29T05:45:03;100815.09;;;22.00;69.59
79540;BME280;68991;52.122;5.406;2023-07-29T05:47:29;100821.41;;;22.00;69.62
79540;BME280;68991;52.122;5.406;2023-07-29T05:49:56;100818.69;;;22.00;69.75
79540;BME280;68991;52.122;5.406;2023-07-29T05:52:22;100811.50;;;21.99;69.54
79540;BME280;68991;52.122;5.406;2023-07-29T05:54:49;100814.06;;;22.01;69.79
79540;BME280;68991;52.122;5.406;2023-07-29T05:57:15;100807.72;;;22.00;69.36
79540;BME280;68991;52.122;5.406;2023-07-29T05:59:41;100811.34;;;22.01;69.87
79540;BME280;68991;52.122;5.406;2023-07-29T06:02:08;100813.06;;;22.02;69.75
79540;BME280;68991;52.122;5.406;2023-07-29T06:04:34;100814.81;;;22.03;69.41
79540;BME280;68991;52.122;5.406;2023-07-29T06:07:01;100808.47;;;22.02;69.52
79540;BME280;68991;52.122;5.406;2023-07-29T06:09:27;100813.06;;;22.02;69.56
79540;BME280;68991;52.122;5.406;2023-07-29T06:11:54;100812.94;;;22.03;69.71
79540;BME280;68991;52.122;5.406;2023-07-29T06:14:21;100805.56;;;22.04;69.32
79540;BME280;68991;52.122;5.406;2023-07-29T06:16:47;100800.94;;;22.04;69.71
79540;BME280;68991;52.122;5.406;2023-07-29T06:19:14;100808.84;;;22.07;69.47
79540;BME280;68991;52.122;5.406;2023-07-29T06:21:42;100808.84;;;22.07;69.30
79540;BME280;68991;52.122;5.406;2023-07-29T06:24:08;100813.31;;;22.08;69.86
79540;BME280;68991;52.122;5.406;2023-07-29T06:26:36;100802.22;;;22.10;69.37
79540;BME280;68991;52.122;5.406;2023-07-29T06:29:03;100802.94;;;22.12;69.43
79540;BME280;68991;52.122;5.406;2023-07-29T06:31:29;100805.34;;;22.15;69.41
79540;BME280;68991;52.122;5.406;2023-07-29T06:33:56;100811.41;;;22.18;69.77
79540;BME280;68991;52.122;5.406;2023-07-29T06:36:23;100810.09;;;22.22;69.93
79540;BME280;68991;52.122;5.406;2023-07-29T06:38:49;100808.91;;;22.25;69.83
79540;BME280;68991;52.122;5.406;2023-07-29T06:41:16;100808.63;;;22.28;69.59
79540;BME280;68991;52.122;5.406;2023-07-29T06:43:45;100809.31;;;22.30;69.54
79540;BME280;68991;52.122;5.406;2023-07-29T06:46:12;100814.50;;;22.33;69.72
79540;BME280;68991;52.122;5.406;2023-07-29T06:48:39;100817.09;;;22.35;69.28
79540;BME280;68991;52.122;5.406;2023-07-29T06:51:05;100825.16;;;22.36;69.84
79540;BME280;68991;52.122;5.406;2023-07-29T06:53:31;100825.69;;;22.40;69.71
79540;BME280;68991;52.122;5.406;2023-07-29T06:56:00;100817.03;;;22.44;70.07
79540;BME280;68991;52.122;5.406;2023-07-29T06:58:27;100816.03;;;22.45;69.78
79540;BME280;68991;52.122;5.406;2023-07-29T07:00:53;100817.72;;;22.46;69.84
79540;BME280;68991;52.122;5.406;2023-07-29T07:03:23;100817.59;;;22.48;69.75
79540;BME280;68991;52.122;5.406;2023-07-29T07:05:50;100819.47;;;22.47;69.63
79540;BME280;68991;52.122;5.406;2023-07-29T07:08:17;100822.94;;;22.49;69.81
79540;BME280;68991;52.122;5.406;2023-07-29T07:10:43;100817.28;;;22.51;69.57
79540;BME280;68991;52.122;5.406;2023-07-29T07:13:09;100817.28;;;22.51;69.38
79540;BME280;68991;52.122;5.406;2023-07-29T07:15:36;100826.22;;;22.53;69.61
79540;BME280;68991;52.122;5.406;2023-07-29T07:18:02;100825.19;;;22.54;69.58
79540;BME280;68991;52.122;5.406;2023-07-29T07:20:29;100826.91;;;22.55;69.61
79540;BME280;68991;52.122;5.406;2023-07-29T07:22:55;100825.03;;;22.55;69.23
79540;BME280;68991;52.122;5.406;2023-07-29T07:25:22;100826.91;;;22.55;69.25
79540;BME280;68991;52.122;5.406;2023-07-29T07:27:49;100835.00;;;22.56;69.45
79540;BME280;68991;52.122;5.406;2023-07-29T07:30:16;100832.09;;;22.58;69.21
79540;BME280;68991;52.122;5.406;2023-07-29T07:32:42;100840.16;;;22.59;69.23
79540;BME280;68991;52.122;5.406;2023-07-29T07:35:08;100838.28;;;22.60;69.18
79540;BME280;68991;52.122;5.406;2023-07-29T07:37:35;100829.91;;;22.61;69.10
79540;BME280;68991;52.122;5.406;2023-07-29T07:40:01;100837.13;;;22.62;69.12
79540;BME280;68991;52.122;5.406;2023-07-29T07:42:28;100835.06;;;22.64;69.20
79540;BME280;68991;52.122;5.406;2023-07-29T07:44:54;100838.53;;;22.66;69.31
79540;BME280;68991;52.122;5.406;2023-07-29T07:47:21;100834.78;;;22.67;69.09
79540;BME280;68991;52.122;5.406;2023-07-29T07:49:47;100833.63;;;22.70;69.10
79540;BME280;68991;52.122;5.406;2023-07-29T07:52:15;100827.84;;;22.73;69.13
79540;BME280;68991;52.122;5.406;2023-07-29T07:54:42;100831.28;;;22.75;69.05
79540;BME280;68991;52.122;5.406;2023-07-29T07:57:08;100839.34;;;22.76;68.89
79540;BME280;68991;52.122;5.406;2023-07-29T07:59:34;100823.78;;;22.77;68.83
79540;BME280;68991;52.122;5.406;2023-07-29T08:02:01;100838.03;;;22.80;68.66
79540;BME280;68991;52.122;5.406;2023-07-29T08:04:28;100834.44;;;22.80;68.75
79540;BME280;68991;52.122;5.406;2023-07-29T08:06:54;100843.53;;;22.80;68.61
79540;BME280;68991;52.122;5.406;2023-07-29T08:09:20;100838.72;;;22.83;68.80
79540;BME280;68991;52.122;5.406;2023-07-29T08:11:47;100841.00;;;22.87;68.52
79540;BME280;68991;52.122;5.406;2023-07-29T08:14:14;100839.81;;;22.90;68.79
79540;BME280;68991;52.122;5.406;2023-07-29T08:16:40;100836.06;;;22.91;68.98
79540;BME280;68991;52.122;5.406;2023-07-29T08:19:06;100838.66;;;22.92;68.54
79540;BME280;68991;52.122;5.406;2023-07-29T08:21:36;100838.50;;;22.94;68.62
79540;BME280;68991;52.122;5.406;2023-07-29T08:24:02;100835.63;;;22.95;68.50
79540;BME280;68991;52.122;5.406;2023-07-29T08:26:29;100832.69;;;22.97;67.96
79540;BME280;68991;52.122;5.406;2023-07-29T08:28:56;100839.06;;;22.97;68.31
79540;BME280;68991;52.122;5.406;2023-07-29T08:31:23;100843.84;;;22.95;68.50
79540;BME280;68991;52.122;5.406;2023-07-29T08:33:49;100841.25;;;22.94;68.24
79540;BME280;68991;52.122;5.406;2023-07-29T08:36:16;100839.38;;;22.94;68.21
79540;BME280;68991;52.122;5.406;2023-07-29T08:38:42;100842.13;;;22.94;68.01
79540;BME280;68991;52.122;5.406;2023-07-29T08:44:20;100842.97;;;22.95;68.38
79540;BME280;68991;52.122;5.406;2023-07-29T08:46:49;100846.59;;;22.95;68.29
79540;BME280;68991;52.122;5.406;2023-07-29T08:49:16;100837.31;;;22.96;68.45
79540;BME280;68991;52.122;5.406;2023-07-29T08:51:47;100841.78;;;22.97;68.20
79540;BME280;68991;52.122;5.406;2023-07-29T08:54:17;100847.13;;;22.99;68.02
79540;BME280;68991;52.122;5.406;2023-07-29T08:56:44;100841.66;;;22.99;68.38
79540;BME280;68991;52.122;5.406;2023-07-29T08:59:13;100834.44;;;22.98;68.11
79540;BME280;68991;52.122;5.406;2023-07-29T09:01:41;100838.03;;;22.98;67.93
79540;BME280;68991;52.122;5.406;2023-07-29T09:04:08;100839.91;;;22.98;67.80
79540;BME280;68991;52.122;5.406;2023-07-29T09:06:35;100842.81;;;22.96;68.00
79540;BME280;68991;52.122;5.406;2023-07-29T09:09:02;100847.28;;;22.97;68.08
79540;BME280;68991;52.122;5.406;2023-07-29T09:11:30;100845.41;;;22.98;68.47
79540;BME280;68991;52.122;5.406;2023-07-29T09:13:57;100853.31;;;23.01;68.42
79540;BME280;68991;52.122;5.406;2023-07-29T09:16:24;100841.72;;;23.07;67.93
79540;BME280;68991;52.122;5.406;2023-07-29T09:18:51;100836.22;;;23.07;67.75
79540;BME280;68991;52.122;5.406;2023-07-29T09:21:23;100837.25;;;23.06;68.35
79540;BME280;68991;52.122;5.406;2023-07-29T09:23:51;100842.56;;;23.07;67.33
79540;BME280;68991;52.122;5.406;2023-07-29T09:26:25;100843.13;;;23.11;67.38
79540;BME280;68991;52.122;5.406;2023-07-29T09:28:56;100840.06;;;23.14;67.49
79540;BME280;68991;52.122;5.406;2023-07-29T09:31:24;100835.44;;;23.14;67.19
79540;BME280;68991;52.122;5.406;2023-07-29T09:34:02;100833.72;;;23.13;67.37
79540;BME280;68991;52.122;5.406;2023-07-29T09:36:33;100836.44;;;23.13;67.15
79540;BME280;68991;52.122;5.406;2023-07-29T09:39:00;100838.91;;;23.16;67.26
79540;BME280;68991;52.122;5.406;2023-07-29T09:41:28;100841.31;;;23.19;67.21
79540;BME280;68991;52.122;5.406;2023-07-29T09:43:58;100837.53;;;23.20;67.71
79540;BME280;68991;52.122;5.406;2023-07-29T09:46:25;100839.28;;;23.21;67.52
79540;BME280;68991;52.122;5.406;2023-07-29T09:48:58;100837.72;;;23.19;67.61
79540;BME280;68991;52.122;5.406;2023-07-29T09:51:25;100840.78;;;23.16;67.56
79540;BME280;68991;52.122;5.406;2023-07-29T09:53:51;100842.81;;;23.14;67.37
79540;BME280;68991;52.122;5.406;2023-07-29T09:56:26;100846.88;;;23.10;67.97
79540;BME280;68991;52.122;5.406;2023-07-29T09:58:55;100857.84;;;23.10;67.92
79540;BME280;68991;52.122;5.406;2023-07-29T10:01:23;100857.84;;;23.10;67.84
79540;BME280;68991;52.122;5.406;2023-07-29T10:03:50;100861.63;;;23.09;67.88
79540;BME280;68991;52.122;5.406;2023-07-29T10:06:17;100856.28;;;23.07;68.04
79540;BME280;68991;52.122;5.406;2023-07-29T10:08:44;100859.91;;;23.08;68.46
79540;BME280;68991;52.122;5.406;2023-07-29T10:11:11;100855.41;;;23.07;68.53
79540;BME280;68991;52.122;5.406;2023-07-29T10:13:38;100849.94;;;23.07;68.39
79540;BME280;68991;52.122;5.406;2023-07-29T10:16:05;100857.16;;;23.08;68.51
79540;BME280;68991;52.122;5.406;2023-07-29T10:18:33;100860.59;;;23.10;68.54
79540;BME280;68991;52.122;5.406;2023-07-29T10:21:01;100855.81;;;23.12;68.56
79540;BME280;68991;52.122;5.406;2023-07-29T10:23:32;100852.06;;;23.13;68.12
79540;BME280;68991;52.122;5.406;2023-07-29T10:26:05;100857.69;;;23.11;68.15
79540;BME280;68991;52.122;5.406;2023-07-29T10:28:33;100863.19;;;23.11;68.14
79540;BME280;68991;52.122;5.406;2023-07-29T10:31:02;100864.19;;;23.10;68.40
79540;BME280;68991;52.122;5.406;2023-07-29T10:33:31;100865.78;;;23.13;68.74
79540;BME280;68991;52.122;5.406;2023-07-29T10:35:59;100868.03;;;23.17;68.55
79540;BME280;68991;52.122;5.406;2023-07-29T10:38:26;100872.19;;;23.21;68.34
79540;BME280;68991;52.122;5.406;2023-07-29T10:40:55;100879.41;;;23.22;68.22
79540;BME280;68991;52.122;5.406;2023-07-29T10:43:32;100873.94;;;23.22;68.40
79540;BME280;68991;52.122;5.406;2023-07-29T10:46:21;100869.44;;;23.21;68.28
79540;BME280;68991;52.122;5.406;2023-07-29T10:48:53;100866.72;;;23.21;68.35
79540;BME280;68991;52.122;5.406;2023-07-29T10:51:23;100860.53;;;23.19;68.50
79540;BME280;68991;52.122;5.406;2023-07-29T10:53:58;100854.19;;;23.19;68.68
79540;BME280;68991;52.122;5.406;2023-07-29T10:56:33;100850.44;;;23.20;68.57
79540;BME280;68991;52.122;5.406;2023-07-29T11:01:55;100859.19;;;23.23;68.51
79540;BME280;68991;52.122;5.406;2023-07-29T11:04:26;100862.50;;;23.27;68.23
79540;BME280;68991;52.122;5.406;2023-07-29T11:15:15;100872.97;;;23.31;68.38
79540;BME280;68991;52.122;5.406;2023-07-29T11:17:59;100875.72;;;23.31;68.19
79540;BME280;68991;52.122;5.406;2023-07-29T11:20:28;100872.13;;;23.31;68.33
79540;BME280;68991;52.122;5.406;2023-07-29T11:22:57;100878.63;;;23.30;68.32
79540;BME280;68991;52.122;5.406;2023-07-29T11:25:26;100870.41;;;23.30;68.38
79540;BME280;68991;52.122;5.406;2023-07-29T11:27:55;100878.63;;;23.30;68.20
79540;BME280;68991;52.122;5.406;2023-07-29T11:30:22;100878.63;;;23.30;68.23
79540;BME280;68991;52.122;5.406;2023-07-29T11:32:57;100873.16;;;23.30;68.27
79540;BME280;68991;52.122;5.406;2023-07-29T11:35:25;100879.66;;;23.29;68.75
79540;BME280;68991;52.122;5.406;2023-07-29T11:37:53;100874.16;;;23.29;68.20
79540;BME280;68991;52.122;5.406;2023-07-29T11:40:21;100873.28;;;23.28;68.38
79540;BME280;68991;52.122;5.406;2023-07-29T11:42:49;100864.38;;;23.26;68.46
79540;BME280;68991;52.122;5.406;2023-07-29T11:45:20;100878.09;;;23.26;68.25
79540;BME280;68991;52.122;5.406;2023-07-29T11:47:49;100873.47;;;23.27;68.27
79540;BME280;68991;52.122;5.406;2023-07-29T11:50:15;100872.44;;;23.28;68.24
79540;BME280;68991;52.122;5.406;2023-07-29T11:52:44;100873.28;;;23.28;68.34
79540;BME280;68991;52.122;5.406;2023-07-29T11:55:12;100864.19;;;23.28;68.75
79540;BME280;68991;52.122;5.406;2023-07-29T11:57:39;100876.22;;;23.27;68.37
79540;BME280;68991;52.122;5.406;2023-07-29T12:00:08;100876.91;;;23.29;68.20
79540;BME280;68991;52.122;5.406;2023-07-29T12:02:38;100872.81;;;23.33;68.18
79540;BME280;68991;52.122;5.406;2023-07-29T12:05:06;100871.50;;;23.37;68.19
79540;BME280;68991;52.122;5.406;2023-07-29T12:07:33;100877.25;;;23.44;68.19
79540;BME280;68991;52.122;5.406;2023-07-29T12:10:00;100876.28;;;23.53;67.87
79540;BME280;68991;52.122;5.406;2023-07-29T12:12:26;100868.66;;;23.64;67.53
79540;BME280;68991;52.122;5.406;2023-07-29T12:14:54;100868.53;;;23.74;67.38
79540;BME280;68991;52.122;5.406;2023-07-29T12:17:21;100865.72;;;23.84;67.15
79540;BME280;68991;52.122;5.406;2023-07-29T12:19:47;100860.25;;;23.92;67.20
79540;BME280;68991;52.122;5.406;2023-07-29T12:22:19;100867.88;;;23.98;66.62
79540;BME280;68991;52.122;5.406;2023-07-29T12:24:46;100865.47;;;24.03;66.35
79540;BME280;68991;52.122;5.406;2023-07-29T12:27:14;100858.44;;;24.00;66.62
79540;BME280;68991;52.122;5.406;2023-07-29T12:29:43;100857.91;;;23.97;66.38
79540;BME280;68991;52.122;5.406;2023-07-29T12:32:10;100856.16;;;23.96;66.85
79540;BME280;68991;52.122;5.406;2023-07-29T12:34:38;100850.69;;;23.96;66.29
79540;BME280;68991;52.122;5.406;2023-07-29T12:37:06;100852.41;;;23.97;66.47
79540;BME280;68991;52.122;5.406;2023-07-29T12:39:35;100855.84;;;23.99;66.57
79540;BME280;68991;52.122;5.406;2023-07-29T12:42:03;100850.34;;;23.99;66.56
79540;BME280;68991;52.122;5.406;2023-07-29T12:44:34;100858.59;;;23.99;66.51
79540;BME280;68991;52.122;5.406;2023-07-29T12:47:02;100857.91;;;23.97;66.34
79540;BME280;68991;52.122;5.406;2023-07-29T12:49:30;100860.66;;;23.97;66.40
79540;BME280;68991;52.122;5.406;2023-07-29T12:52:00;100864.25;;;23.97;66.63
79540;BME280;68991;52.122;5.406;2023-07-29T12:54:27;100864.41;;;23.96;66.73
79540;BME280;68991;52.122;5.406;2023-07-29T12:56:53;100866.81;;;23.99;66.52
79540;BME280;68991;52.122;5.406;2023-07-29T12:59:20;100858.44;;;24.00;66.60
79540;BME280;68991;52.122;5.406;2023-07-29T13:01:46;100862.19;;;23.99;66.48
79540;BME280;68991;52.122;5.406;2023-07-29T13:04:13;100853.34;;;24.05;66.59
79540;BME280;68991;52.122;5.406;2023-07-29T13:06:39;100860.28;;;24.17;66.47
79540;BME280;68991;52.122;5.406;2023-07-29T13:09:07;100858.06;;;24.21;66.24
79540;BME280;68991;52.122;5.406;2023-07-29T13:11:34;100858.59;;;24.24;66.29
79540;BME280;68991;52.122;5.406;2023-07-29T13:14:00;100852.28;;;24.32;65.85